sensor_id;sensor_type;location;lat;lon;timestamp;P1;durP1;ratioP1;P2;durP2;ratioP2
49980;SDS011;35871;51.594;7.138;2023-03-08T06:53:34;6.10;;;3.92;;
49980;SDS011;35871;51.594;7.138;2023-03-08T06:58:35;6.60;;;3.80;;
49980;SDS011;35871;51.594;7.138;2023-03-08T07:03:37;8.02;;;4.35;;
49980;SDS011;35871;51.594;7.138;2023-03-08T07:08:38;6.72;;;3.97;;
49980;SDS011;35871;51.594;7.138;2023-03-08T07:13:39;5.20;;;3.55;;
49980;SDS011;35871;51.594;7.138;2023-03-08T07:23:41;6.50;;;4.17;;
49980;SDS011;35871;51.594;7.138;2023-03-08T07:28:42;3.65;;;2.47;;
49980;SDS011;35871;51.594;7.138;2023-03-08T07:33:43;4.60;;;3.67;;
49980;SDS011;35871;51.594;7.138;2023-03-08T07:38:45;5.72;;;3.40;;
49980;SDS011;35871;51.594;7.138;2023-03-08T07:43:46;4.55;;;3.30;;
49980;SDS011;35871;51.594;7.138;2023-03-08T07:48:47;4.97;;;3.13;;
49980;SDS011;35871;51.594;7.138;2023-03-08T07:53:48;4.88;;;3.30;;
49980;SDS011;35871;51.594;7.138;2023-03-08T07:58:49;3.78;;;2.80;;
49980;SDS011;35871;51.594;7.138;2023-03-08T08:03:50;3.20;;;2.13;;
49980;SDS011;35871;51.594;7.138;2023-03-08T08:08:51;3.88;;;1.65;;
49980;SDS011;35871;51.594;7.138;2023-03-08T08:13:52;9.75;;;6.25;;
49980;SDS011;35871;51.594;7.138;2023-03-08T08:18:53;4.18;;;2.65;;
49980;SDS011;35871;51.594;7.138;2023-03-08T08:23:54;4.78;;;3.13;;
49980;SDS011;35871;51.594;7.138;2023-03-08T08:28:57;6.53;;;2.88;;
49980;SDS011;35871;51.594;7.138;2023-03-08T08:33:58;5.25;;;2.80;;
49980;SDS011;35871;51.594;7.138;2023-03-08T08:38:59;4.25;;;2.40;;
49980;SDS011;35871;51.594;7.138;2023-03-08T08:44:00;5.18;;;2.92;;
49980;SDS011;35871;51.594;7.138;2023-03-08T08:49:02;6.68;;;2.50;;
49980;SDS011;35871;51.594;7.138;2023-03-08T08:54:04;5.70;;;2.45;;
49980;SDS011;35871;51.594;7.138;2023-03-08T08:59:05;8.50;;;2.30;;
49980;SDS011;35871;51.594;7.138;2023-03-08T09:04:06;4.75;;;2.50;;
49980;SDS011;35871;51.594;7.138;2023-03-08T09:09:07;3.42;;;2.17;;
49980;SDS011;35871;51.594;7.138;2023-03-08T09:19:09;6.13;;;2.55;;
49980;SDS011;35871;51.594;7.138;2023-03-08T09:24:11;4.97;;;2.15;;
49980;SDS011;35871;51.594;7.138;2023-03-08T09:29:12;8.07;;;1.92;;
49980;SDS011;35871;51.594;7.138;2023-03-08T09:34:13;5.30;;;2.10;;
49980;SDS011;35871;51.594;7.138;2023-03-08T09:39:14;4.00;;;2.13;;
49980;SDS011;35871;51.594;7.138;2023-03-08T09:49:19;3.28;;;1.92;;
49980;SDS011;35871;51.594;7.138;2023-03-08T09:54:22;5.10;;;1.98;;
49980;SDS011;35871;51.594;7.138;2023-03-08T09:59:30;4.68;;;2.05;;
49980;SDS011;35871;51.594;7.138;2023-03-08T10:10:01;7.50;;;2.47;;
49980;SDS011;35871;51.594;7.138;2023-03-08T10:15:16;3.63;;;2.22;;
49980;SDS011;35871;51.594;7.138;2023-03-08T10:20:29;7.10;;;3.53;;
49980;SDS011;35871;51.594;7.138;2023-03-08T10:25:33;7.43;;;5.50;;
49980;SDS011;35871;51.594;7.138;2023-03-08T10:30:36;4.70;;;2.92;;
49980;SDS011;35871;51.594;7.138;2023-03-08T10:41:20;4.45;;;2.53;;
49980;SDS011;35871;51.594;7.138;2023-03-08T10:46:22;4.95;;;2.45;;
49980;SDS011;35871;51.594;7.138;2023-03-08T10:51:24;3.50;;;2.63;;
49980;SDS011;35871;51.594;7.138;2023-03-08T10:56:42;6.50;;;4.18;;
49980;SDS011;35871;51.594;7.138;2023-03-08T11:01:47;3.45;;;1.98;;
49980;SDS011;35871;51.594;7.138;2023-03-08T11:06:49;3.60;;;1.92;;
49980;SDS011;35871;51.594;7.138;2023-03-08T11:11:51;3.75;;;1.95;;
49980;SDS011;35871;51.594;7.138;2023-03-08T11:16:54;2.92;;;1.90;;
49980;SDS011;35871;51.594;7.138;2023-03-08T11:43:19;2.25;;;1.48;;
49980;SDS011;35871;51.594;7.138;2023-03-08T11:48:33;1.95;;;1.55;;
49980;SDS011;35871;51.594;7.138;2023-03-08T11:58:44;6.57;;;4.18;;
49980;SDS011;35871;51.594;7.138;2023-03-08T12:03:48;2.97;;;1.55;;
49980;SDS011;35871;51.594;7.138;2023-03-08T12:29:32;2.03;;;1.50;;
49980;SDS011;35871;51.594;7.138;2023-03-08T12:39:36;2.17;;;1.27;;
49980;SDS011;35871;51.594;7.138;2023-03-08T12:44:38;2.05;;;1.42;;
49980;SDS011;35871;51.594;7.138;2023-03-08T12:50:07;1.75;;;1.08;;
49980;SDS011;35871;51.594;7.138;2023-03-08T12:55:20;1.48;;;0.80;;
49980;SDS011;35871;51.594;7.138;2023-03-08T13:00:26;1.70;;;1.40;;
49980;SDS011;35871;51.594;7.138;2023-03-08T13:05:29;2.50;;;1.70;;
49980;SDS011;35871;51.594;7.138;2023-03-08T13:10:32;2.13;;;1.20;;
49980;SDS011;35871;51.594;7.138;2023-03-08T13:15:34;2.13;;;1.23;;
49980;SDS011;35871;51.594;7.138;2023-03-08T13:30:57;2.15;;;1.42;;
49980;SDS011;35871;51.594;7.138;2023-03-08T13:35:59;2.03;;;1.20;;
49980;SDS011;35871;51.594;7.138;2023-03-08T13:41:00;1.83;;;1.38;;
49980;SDS011;35871;51.594;7.138;2023-03-08T13:46:03;2.65;;;1.50;;
49980;SDS011;35871;51.594;7.138;2023-03-08T13:51:05;1.58;;;1.10;;
49980;SDS011;35871;51.594;7.138;2023-03-08T13:56:06;2.42;;;1.92;;
49980;SDS011;35871;51.594;7.138;2023-03-08T14:01:15;1.60;;;1.10;;
49980;SDS011;35871;51.594;7.138;2023-03-08T14:11:25;2.63;;;2.05;;
49980;SDS011;35871;51.594;7.138;2023-03-08T14:16:28;2.47;;;1.58;;
49980;SDS011;35871;51.594;7.138;2023-03-08T14:21:30;2.25;;;1.67;;
49980;SDS011;35871;51.594;7.138;2023-03-08T14:26:32;2.92;;;2.30;;
49980;SDS011;35871;51.594;7.138;2023-03-08T14:31:33;1.70;;;1.40;;
49980;SDS011;35871;51.594;7.138;2023-03-08T14:36:36;1.95;;;1.58;;
49980;SDS011;35871;51.594;7.138;2023-03-08T14:41:37;1.85;;;1.60;;
49980;SDS011;35871;51.594;7.138;2023-03-08T14:46:38;2.25;;;1.65;;
49980;SDS011;35871;51.594;7.138;2023-03-08T14:51:40;3.38;;;2.25;;
49980;SDS011;35871;51.594;7.138;2023-03-08T14:56:41;2.75;;;1.80;;
49980;SDS011;35871;51.594;7.138;2023-03-08T15:01:42;3.15;;;1.60;;
49980;SDS011;35871;51.594;7.138;2023-03-08T15:06:43;2.50;;;1.92;;
49980;SDS011;35871;51.594;7.138;2023-03-08T15:11:45;4.93;;;3.63;;
49980;SDS011;35871;51.594;7.138;2023-03-08T15:16:46;4.75;;;2.78;;
49980;SDS011;35871;51.594;7.138;2023-03-08T15:21:47;2.33;;;1.77;;
49980;SDS011;35871;51.594;7.138;2023-03-08T15:26:48;2.25;;;1.60;;
49980;SDS011;35871;51.594;7.138;2023-03-08T15:31:52;3.97;;;2.78;;
49980;SDS011;35871;51.594;7.138;2023-03-08T15:36:53;2.67;;;1.77;;
49980;SDS011;35871;51.594;7.138;2023-03-08T15:41:54;2.70;;;2.10;;
49980;SDS011;35871;51.594;7.138;2023-03-08T15:46:55;3.13;;;2.33;;
49980;SDS011;35871;51.594;7.138;2023-03-08T15:51:56;3.95;;;2.20;;
49980;SDS011;35871;51.594;7.138;2023-03-08T15:56:57;4.38;;;2.00;;
49980;SDS011;35871;51.594;7.138;2023-03-08T16:02:05;2.65;;;1.88;;
49980;SDS011;35871;51.594;7.138;2023-03-08T16:07:17;2.92;;;1.85;;
49980;SDS011;35871;51.594;7.138;2023-03-08T16:12:18;3.67;;;2.00;;
49980;SDS011;35871;51.594;7.138;2023-03-08T16:17:19;2.95;;;2.38;;
49980;SDS011;35871;51.594;7.138;2023-03-08T16:22:20;3.22;;;2.17;;
49980;SDS011;35871;51.594;7.138;2023-03-08T16:27:22;2.53;;;1.80;;
49980;SDS011;35871;51.594;7.138;2023-03-08T16:32:23;3.03;;;2.53;;
49980;SDS011;35871;51.594;7.138;2023-03-08T16:37:24;3.88;;;2.70;;
49980;SDS011;35871;51.594;7.138;2023-03-08T16:42:25;2.85;;;2.17;;
49980;SDS011;35871;51.594;7.138;2023-03-08T16:47:26;2.53;;;2.17;;
49980;SDS011;35871;51.594;7.138;2023-03-08T16:52:31;3.45;;;2.55;;
49980;SDS011;35871;51.594;7.138;2023-03-08T16:57:32;4.57;;;2.05;;
49980;SDS011;35871;51.594;7.138;2023-03-08T17:02:33;2.95;;;1.95;;
49980;SDS011;35871;51.594;7.138;2023-03-08T17:07:34;2.95;;;2.10;;
49980;SDS011;35871;51.594;7.138;2023-03-08T17:17:39;3.03;;;1.75;;
49980;SDS011;35871;51.594;7.138;2023-03-08T17:22:40;4.50;;;3.15;;
49980;SDS011;35871;51.594;7.138;2023-03-08T17:27:43;4.30;;;3.25;;
49980;SDS011;35871;51.594;7.138;2023-03-08T17:37:52;4.90;;;2.95;;
49980;SDS011;35871;51.594;7.138;2023-03-08T17:43:07;4.28;;;3.35;;
49980;SDS011;35871;51.594;7.138;2023-03-08T17:48:08;4.63;;;2.90;;
49980;SDS011;35871;51.594;7.138;2023-03-08T17:53:12;3.70;;;3.25;;
49980;SDS011;35871;51.594;7.138;2023-03-08T17:58:14;4.88;;;4.00;;
49980;SDS011;35871;51.594;7.138;2023-03-08T18:03:15;3.92;;;3.53;;
49980;SDS011;35871;51.594;7.138;2023-03-08T18:08:16;5.68;;;4.10;;
49980;SDS011;35871;51.594;7.138;2023-03-08T18:13:17;3.65;;;2.80;;
49980;SDS011;35871;51.594;7.138;2023-03-08T18:18:19;4.90;;;3.13;;
49980;SDS011;35871;51.594;7.138;2023-03-08T18:23:20;4.35;;;3.33;;
49980;SDS011;35871;51.594;7.138;2023-03-08T18:28:23;4.72;;;3.95;;
49980;SDS011;35871;51.594;7.138;2023-03-08T18:33:24;5.63;;;4.80;;
49980;SDS011;35871;51.594;7.138;2023-03-08T18:38:25;4.05;;;3.63;;
49980;SDS011;35871;51.594;7.138;2023-03-08T18:43:26;4.40;;;2.88;;
49980;SDS011;35871;51.594;7.138;2023-03-08T18:48:27;5.35;;;4.70;;
49980;SDS011;35871;51.594;7.138;2023-03-08T18:53:28;5.20;;;4.32;;
49980;SDS011;35871;51.594;7.138;2023-03-08T18:58:29;4.60;;;3.78;;
49980;SDS011;35871;51.594;7.138;2023-03-08T19:08:32;5.68;;;5.07;;
49980;SDS011;35871;51.594;7.138;2023-03-08T19:13:33;6.28;;;3.78;;
49980;SDS011;35871;51.594;7.138;2023-03-08T19:18:34;4.57;;;4.05;;
49980;SDS011;35871;51.594;7.138;2023-03-08T19:23:35;5.10;;;4.47;;
49980;SDS011;35871;51.594;7.138;2023-03-08T19:28:36;4.60;;;3.97;;
49980;SDS011;35871;51.594;7.138;2023-03-08T19:38:38;5.68;;;5.07;;
49980;SDS011;35871;51.594;7.138;2023-03-08T19:43:39;5.32;;;4.45;;
49980;SDS011;35871;51.594;7.138;2023-03-08T19:48:40;4.10;;;3.70;;
49980;SDS011;35871;51.594;7.138;2023-03-08T19:53:41;4.53;;;3.88;;
49980;SDS011;35871;51.594;7.138;2023-03-08T19:58:43;4.25;;;3.83;;
49980;SDS011;35871;51.594;7.138;2023-03-08T20:03:45;6.57;;;5.60;;
49980;SDS011;35871;51.594;7.138;2023-03-08T20:13:47;5.75;;;4.68;;
